Time;durP1;ratioP1;P1;durP2;ratioP2;P2;SDS_P1;SDS_P2;PMS_P1;PMS_P2;Temp;Humidity;BMP_temperature;BMP_pressure;BME280_temperature;BME280_humidity;BME280_pressure;Samples;Min_cycle;Max_cycle;Signal;HPM_P1;HPM_P2
2022/06/25 00:02:00;;;;;;;19.13;15.77;;;17.80;99.90;;;;;;4996276;28;20042;-69
2022/06/25 00:07:09;;;;;;;21.17;18.92;;;17.70;99.90;;;;;;4996575;28;20129;-69
2022/06/25 00:09:35;;;;;;;23.40;19.27;;;17.70;99.90;;;;;;5012273;28;20417;-70
2022/06/25 00:14:46;;;;;;;23.15;18.08;;;17.70;99.90;;;;;;5015779;28;20058;-69
2022/06/25 00:17:12;;;;;;;21.20;18.92;;;17.70;99.90;;;;;;4986414;28;20054;-68
2022/06/25 00:19:37;;;;;;;20.95;18.75;;;17.70;99.90;;;;;;4995517;28;20376;-68
2022/06/25 00:22:03;;;;;;;25.63;19.85;;;17.70;99.90;;;;;;4996002;28;20042;-68
2022/06/25 00:24:29;;;;;;;22.00;19.58;;;17.70;99.90;;;;;;4994793;28;20049;-70
2022/06/25 00:26:54;;;;;;;25.20;21.20;;;17.70;99.90;;;;;;4978867;28;20475;-68
2022/06/25 00:29:20;;;;;;;23.63;19.67;;;17.70;99.90;;;;;;4995685;28;20053;-70
2022/06/25 00:31:45;;;;;;;22.45;20.00;;;17.70;99.90;;;;;;4995459;28;20118;-70
2022/06/25 00:34:11;;;;;;;26.08;21.42;;;17.80;99.90;;;;;;4995923;28;20046;-69
2022/06/25 00:36:37;;;;;;;24.63;20.35;;;17.70;99.90;;;;;;4995109;28;20445;-68
2022/06/25 00:39:03;;;;;;;24.98;21.75;;;17.70;99.90;;;;;;4997357;28;20090;-68
2022/06/25 00:41:29;;;;;;;21.35;19.25;;;17.80;99.90;;;;;;4995888;28;20042;-69
2022/06/25 00:43:54;;;;;;;24.58;21.60;;;17.80;99.90;;;;;;4995688;28;20177;-68
2022/06/25 00:46:20;;;;;;;25.50;22.73;;;17.70;99.90;;;;;;4995706;28;20034;-68
2022/06/25 00:48:46;;;;;;;24.48;20.52;;;17.80;99.90;;;;;;4995682;28;20045;-69
2022/06/25 00:51:13;;;;;;;21.55;19.25;;;17.70;99.90;;;;;;4995374;28;20054;-69
2022/06/25 00:53:44;;;;;;;28.33;21.75;;;17.70;99.90;;;;;;5003551;28;20141;-70
2022/06/25 00:56:11;;;;;;;25.02;21.77;;;17.80;99.90;;;;;;4995498;28;20056;-69
2022/06/25 00:58:43;;;;;;;22.27;19.48;;;17.80;99.90;;;;;;4995238;28;20078;-70
2022/06/25 01:01:09;;;;;;;23.17;20.67;;;17.70;99.90;;;;;;4978357;28;20086;-68
2022/06/25 01:03:36;;;;;;;23.17;20.77;;;17.60;99.90;;;;;;4995486;28;20093;-68
2022/06/25 01:06:02;;;;;;;23.88;21.35;;;17.70;99.90;;;;;;5003599;28;20046;-68
2022/06/25 01:08:28;;;;;;;23.90;20.65;;;17.60;99.90;;;;;;5014972;28;20065;-68
2022/06/25 01:10:54;;;;;;;27.15;21.95;;;17.60;99.90;;;;;;5015003;28;20053;-70
2022/06/25 01:13:24;;;;;;;26.30;23.48;;;17.60;99.90;;;;;;5014954;28;20065;-68
2022/06/25 01:15:50;;;;;;;27.15;21.88;;;17.60;99.90;;;;;;4997997;28;20050;-70
2022/06/25 01:18:16;;;;;;;26.73;22.00;;;17.50;99.90;;;;;;5014851;28;20381;-68
2022/06/25 01:20:42;;;;;;;24.15;21.55;;;17.50;99.90;;;;;;5005351;28;20109;-70
2022/06/25 01:23:09;;;;;;;26.10;21.70;;;17.50;99.90;;;;;;4995195;28;20054;-70
2022/06/25 01:25:36;;;;;;;26.45;22.92;;;17.50;99.90;;;;;;4995066;28;20042;-68
2022/06/25 01:28:03;;;;;;;26.13;23.30;;;17.50;99.90;;;;;;4994946;28;20046;-68
2022/06/25 01:30:28;;;;;;;27.77;23.67;;;17.40;99.90;;;;;;4995349;28;20081;-68
2022/06/25 01:32:54;;;;;;;27.40;24.50;;;17.50;99.90;;;;;;4999465;28;20426;-70
2022/06/25 01:35:20;;;;;;;28.27;24.30;;;17.50;99.90;;;;;;5005018;28;20046;-69
2022/06/25 01:37:45;;;;;;;27.83;24.85;;;17.40;99.90;;;;;;5018750;28;20060;-69
2022/06/25 01:40:11;;;;;;;26.40;23.85;;;17.40;99.90;;;;;;5018814;28;20049;-69
2022/06/25 01:45:23;;;;;;;28.45;23.45;;;17.40;99.90;;;;;;5018566;28;20050;-68
2022/06/25 01:47:48;;;;;;;26.88;23.40;;;17.40;99.90;;;;;;5018261;28;20053;-68
2022/06/25 01:50:14;;;;;;;26.88;23.42;;;17.40;99.90;;;;;;5008225;28;20367;-70
2022/06/25 01:52:42;;;;;;;27.63;24.77;;;17.40;99.90;;;;;;5014835;28;20045;-69
2022/06/25 01:55:09;;;;;;;31.00;23.48;;;17.40;99.90;;;;;;5002562;28;20046;-70
2022/06/25 01:57:35;;;;;;;25.23;22.55;;;17.40;99.90;;;;;;4998613;28;20039;-68
2022/06/25 02:00:00;;;;;;;26.73;23.95;;;17.40;99.90;;;;;;4998614;28;20068;-70
2022/06/25 02:02:26;;;;;;;27.92;23.55;;;17.30;99.90;;;;;;4998799;28;20054;-69
2022/06/25 02:04:52;;;;;;;29.50;24.88;;;17.30;99.90;;;;;;4997461;28;20045;-69
2022/06/25 02:07:17;;;;;;;31.92;24.85;;;17.40;99.90;;;;;;4985773;28;20057;-68
2022/06/25 02:09:43;;;;;;;26.65;23.65;;;17.30;99.90;;;;;;4978805;28;20050;-70
2022/06/25 02:12:09;;;;;;;27.15;24.35;;;17.30;99.90;;;;;;4989717;28;20042;-69
2022/06/25 02:14:34;;;;;;;28.02;25.27;;;17.30;99.90;;;;;;4998392;28;20103;-69
2022/06/25 02:17:00;;;;;;;26.98;24.08;;;17.30;99.90;;;;;;4997897;28;20049;-68
2022/06/25 02:19:25;;;;;;;28.25;24.85;;;17.30;99.90;;;;;;5018045;28;20448;-70
2022/06/25 02:21:51;;;;;;;29.60;25.73;;;17.30;99.90;;;;;;5018029;28;20049;-68
2022/06/25 02:24:17;;;;;;;27.20;24.35;;;17.30;99.90;;;;;;5008548;28;20125;-68
2022/06/25 02:26:42;;;;;;;29.50;26.33;;;17.30;99.90;;;;;;4997936;28;20046;-70
2022/06/25 02:29:08;;;;;;;31.67;28.33;;;17.20;99.90;;;;;;4998282;28;20054;-70
2022/06/25 02:31:34;;;;;;;27.88;25.10;;;17.20;99.90;;;;;;4997817;28;20053;-70
2022/06/25 02:33:59;;;;;;;27.58;24.15;;;17.20;99.90;;;;;;4998028;28;20082;-68
2022/06/25 02:36:25;;;;;;;28.33;25.38;;;17.20;99.90;;;;;;4997947;28;20133;-68
2022/06/25 02:38:51;;;;;;;27.98;23.20;;;17.20;99.90;;;;;;5005679;28;20046;-68
2022/06/25 02:41:16;;;;;;;29.60;26.48;;;17.20;99.90;;;;;;5017220;28;20033;-68
2022/06/25 02:43:42;;;;;;;28.83;25.80;;;17.30;99.90;;;;;;5017262;28;20437;-69
2022/06/25 02:46:08;;;;;;;27.42;24.48;;;17.20;99.90;;;;;;5000347;28;20085;-69
2022/06/25 02:48:34;;;;;;;28.10;25.20;;;17.20;99.90;;;;;;5000711;28;20085;-68
2022/06/25 02:50:59;;;;;;;27.73;24.85;;;17.20;99.90;;;;;;5011635;28;20360;-69
2022/06/25 02:53:25;;;;;;;27.60;23.48;;;17.20;99.90;;;;;;5000414;28;20807;-69
2022/06/25 03:01:19;;;;;;;27.75;24.45;;;17.10;99.90;;;;;;4997706;28;20129;-69
2022/06/25 03:03:45;;;;;;;25.88;23.38;;;17.00;99.90;;;;;;4997448;28;20101;-68
2022/06/25 03:06:11;;;;;;;26.48;23.63;;;17.10;99.90;;;;;;4997310;28;20070;-69
2022/06/25 03:08:37;;;;;;;26.88;24.02;;;17.00;99.90;;;;;;4996496;28;20042;-69
2022/06/25 03:11:03;;;;;;;26.70;23.02;;;17.10;99.90;;;;;;4996726;28;20051;-68
2022/06/25 03:13:31;;;;;;;25.67;23.13;;;17.00;99.90;;;;;;4996000;28;20054;-70
2022/06/25 03:15:57;;;;;;;26.50;22.58;;;17.10;99.90;;;;;;4997268;28;20453;-70
2022/06/25 03:18:23;;;;;;;25.40;22.23;;;17.10;99.90;;;;;;4996850;28;20049;-69
2022/06/25 03:20:50;;;;;;;24.70;22.10;;;17.00;99.90;;;;;;4997053;28;20046;-67
2022/06/25 03:23:16;;;;;;;24.67;22.17;;;17.00;99.90;;;;;;4996970;28;20042;-68
2022/06/25 03:25:42;;;;;;;21.88;19.73;;;17.00;99.90;;;;;;4997168;28;20062;-68
2022/06/25 03:28:08;;;;;;;22.35;20.17;;;17.10;99.90;;;;;;4996159;28;20038;-70
2022/06/25 03:30:33;;;;;;;24.33;21.77;;;17.00;99.90;;;;;;4997131;28;20042;-69
2022/06/25 03:32:59;;;;;;;22.58;20.38;;;17.00;99.90;;;;;;4997189;28;20352;-68
2022/06/25 03:35:24;;;;;;;21.58;19.40;;;17.10;99.90;;;;;;4996805;28;20082;-70
2022/06/25 03:37:50;;;;;;;22.63;20.42;;;17.10;99.90;;;;;;4997247;28;20441;-68
2022/06/25 03:40:17;;;;;;;22.40;20.10;;;17.10;99.90;;;;;;4996758;28;20038;-69
2022/06/25 03:42:43;;;;;;;22.02;19.83;;;17.10;99.90;;;;;;5003995;28;20086;-69
2022/06/25 03:45:09;;;;;;;21.33;19.08;;;17.10;99.90;;;;;;5014970;28;20088;-68
2022/06/25 03:47:35;;;;;;;19.92;17.95;;;17.10;99.90;;;;;;5013372;28;20058;-69
2022/06/25 03:50:01;;;;;;;20.65;18.58;;;17.00;99.90;;;;;;4996449;28;20057;-69
2022/06/25 03:52:27;;;;;;;20.13;18.13;;;17.10;99.90;;;;;;4996561;28;20125;-69
2022/06/25 03:54:52;;;;;;;20.45;17.30;;;17.10;99.90;;;;;;4995154;28;20514;-68
2022/06/25 03:57:18;;;;;;;20.88;18.67;;;17.10;99.90;;;;;;4995431;28;20054;-69
2022/06/25 03:59:43;;;;;;;19.80;17.67;;;17.10;99.90;;;;;;4996511;28;20342;-68
2022/06/25 04:02:09;;;;;;;22.73;18.33;;;17.00;99.90;;;;;;4996627;28;20444;-69
2022/06/25 04:04:35;;;;;;;19.70;17.83;;;17.10;99.90;;;;;;4996045;28;20137;-69
2022/06/25 04:07:00;;;;;;;19.98;17.98;;;17.10;99.90;;;;;;4996275;28;20046;-68
2022/06/25 04:09:26;;;;;;;23.58;18.00;;;17.00;99.90;;;;;;4996266;28;20042;-68
2022/06/25 04:11:51;;;;;;;19.90;17.63;;;17.00;99.90;;;;;;4977962;28;20046;-70
2022/06/25 04:14:17;;;;;;;19.08;17.25;;;16.90;99.90;;;;;;4979278;28;20107;-69
2022/06/25 04:16:42;;;;;;;18.77;16.85;;;17.00;99.90;;;;;;4996262;28;20054;-70
2022/06/25 04:19:08;;;;;;;17.83;16.02;;;17.10;99.90;;;;;;4995579;28;20061;-68
2022/06/25 04:21:34;;;;;;;19.58;17.52;;;17.10;99.90;;;;;;4996068;28;20049;-68
2022/06/25 04:23:59;;;;;;;18.75;16.67;;;17.00;99.90;;;;;;5002207;28;20054;-70
2022/06/25 04:26:25;;;;;;;19.30;17.48;;;17.10;99.90;;;;;;4996005;28;20076;-68
2022/06/25 04:29:08;;;;;;;20.17;17.98;;;17.10;99.90;;;;;;4996010;28;20046;-67
2022/06/25 04:31:35;;;;;;;18.95;16.95;;;17.10;99.90;;;;;;4995582;28;20108;-69
2022/06/25 04:34:02;;;;;;;18.73;16.95;;;17.10;99.90;;;;;;4978996;28;20448;-68
2022/06/25 04:36:28;;;;;;;19.67;17.27;;;17.10;99.90;;;;;;4995681;28;20053;-68
2022/06/25 04:38:53;;;;;;;19.45;17.63;;;17.10;99.90;;;;;;4995673;28;20041;-68
2022/06/25 04:41:19;;;;;;;19.02;17.05;;;17.20;99.90;;;;;;4982076;28;20046;-69
2022/06/25 04:43:45;;;;;;;19.13;17.23;;;17.20;99.90;;;;;;4998058;28;20387;-68
2022/06/25 04:46:10;;;;;;;18.63;16.65;;;17.10;99.90;;;;;;5015296;28;20046;-69
2022/06/25 04:48:36;;;;;;;18.73;16.88;;;17.20;99.90;;;;;;5002140;28;20513;-70
2022/06/25 04:51:02;;;;;;;18.92;16.80;;;17.20;99.90;;;;;;4977923;28;20050;-70
2022/06/25 04:53:28;;;;;;;18.92;16.92;;;17.20;99.90;;;;;;5009546;28;20124;-68
2022/06/25 04:55:53;;;;;;;16.85;15.15;;;17.20;99.90;;;;;;4995826;28;20461;-70
2022/06/25 04:58:19;;;;;;;19.35;17.40;;;17.30;99.90;;;;;;4995820;28;20105;-68
2022/06/25 05:00:45;;;;;;;18.83;17.05;;;17.40;99.90;;;;;;4994488;28;20411;-69
2022/06/25 05:03:10;;;;;;;17.40;15.68;;;17.40;99.90;;;;;;4995595;28;20125;-69
2022/06/25 05:05:36;;;;;;;16.88;15.18;;;17.30;99.90;;;;;;4995106;28;20058;-69
2022/06/25 05:08:02;;;;;;;17.90;16.02;;;17.50;99.90;;;;;;4995361;28;20104;-69
2022/06/25 05:10:28;;;;;;;18.33;16.33;;;17.50;99.90;;;;;;4995260;28;20468;-70
2022/06/25 05:13:12;;;;;;;17.50;15.63;;;17.60;99.90;;;;;;4995565;28;20043;-69
2022/06/25 05:15:39;;;;;;;18.93;15.20;;;17.50;99.90;;;;;;4994745;28;20042;-68
2022/06/25 05:18:06;;;;;;;17.23;15.60;;;17.50;99.90;;;;;;4996148;28;20317;-68
2022/06/25 05:20:37;;;;;;;17.30;15.65;;;17.60;99.90;;;;;;5014871;28;20096;-69
2022/06/25 05:23:02;;;;;;;19.70;16.77;;;17.70;99.90;;;;;;5009747;28;20086;-70
2022/06/25 05:25:29;;;;;;;16.23;14.50;;;17.70;99.90;;;;;;4995326;28;20423;-70
2022/06/25 05:27:55;;;;;;;18.38;16.48;;;17.80;99.90;;;;;;4994677;28;20452;-70
2022/06/25 05:30:21;;;;;;;18.08;16.00;;;17.90;99.90;;;;;;4996469;28;20053;-68
2022/06/25 05:32:46;;;;;;;18.33;14.75;;;17.80;99.90;;;;;;5011852;28;20109;-69
2022/06/25 05:35:12;;;;;;;16.40;14.80;;;17.90;99.90;;;;;;4995110;28;20372;-69
2022/06/25 05:37:37;;;;;;;17.75;15.52;;;18.00;99.90;;;;;;4995095;28;20082;-69
2022/06/25 05:40:03;;;;;;;16.30;14.55;;;18.00;99.90;;;;;;4977525;28;20057;-68
2022/06/25 05:42:29;;;;;;;16.25;14.52;;;18.10;99.90;;;;;;4994750;28;20050;-68
2022/06/25 05:44:55;;;;;;;17.58;15.70;;;18.10;99.90;;;;;;4995185;28;20057;-70
2022/06/25 05:47:20;;;;;;;17.20;15.45;;;18.20;99.90;;;;;;4994650;28;20082;-69
2022/06/25 05:49:46;;;;;;;16.88;14.55;;;18.20;99.90;;;;;;4995051;28;20034;-70
2022/06/25 05:52:11;;;;;;;18.58;14.93;;;18.30;99.90;;;;;;4994476;28;20046;-69
2022/06/25 05:54:37;;;;;;;16.70;15.10;;;18.40;99.90;;;;;;4998464;28;20061;-68
2022/06/25 05:57:04;;;;;;;16.60;14.77;;;18.40;99.90;;;;;;5014462;28;20141;-69
2022/06/25 05:59:29;;;;;;;16.17;14.43;;;18.50;99.90;;;;;;5014811;28;20132;-69
2022/06/25 06:01:55;;;;;;;16.52;14.73;;;18.50;99.90;;;;;;5012150;28;20046;-70
2022/06/25 06:04:20;;;;;;;15.65;13.95;;;18.60;99.90;;;;;;5008506;28;20042;-68
2022/06/25 06:06:46;;;;;;;15.95;13.65;;;18.70;99.90;;;;;;5014283;28;20038;-70
2022/06/25 06:09:11;;;;;;;15.63;13.52;;;18.70;99.90;;;;;;4994748;28;20057;-68
2022/06/25 06:11:37;;;;;;;16.77;14.50;;;18.80;99.90;;;;;;4994289;28;20049;-68
2022/06/25 06:14:02;;;;;;;21.70;14.73;;;18.90;99.90;;;;;;4994850;28;20042;-68
2022/06/25 06:16:28;;;;;;;15.98;14.38;;;18.90;99.90;;;;;;4996853;28;20242;-70
2022/06/25 06:18:54;;;;;;;17.92;13.85;;;19.00;99.90;;;;;;5017850;28;20042;-71
2022/06/25 06:21:19;;;;;;;20.35;14.10;;;19.20;99.90;;;;;;5006140;28;20077;-68
2022/06/25 06:23:45;;;;;;;15.95;14.02;;;19.30;99.90;;;;;;4998259;28;20050;-70
2022/06/25 06:26:10;;;;;;;15.45;13.38;;;19.30;99.90;;;;;;4998005;28;20138;-70
2022/06/25 06:28:36;;;;;;;17.48;14.82;;;19.50;99.90;;;;;;4998079;28;20057;-70
2022/06/25 06:31:02;;;;;;;15.18;13.45;;;19.60;99.90;;;;;;4997962;28;20078;-67
2022/06/25 06:33:27;;;;;;;14.80;13.25;;;19.70;99.90;;;;;;5006149;28;20038;-67
2022/06/25 06:35:53;;;;;;;15.90;12.40;;;19.80;99.90;;;;;;4998045;28;20115;-67
2022/06/25 06:38:18;;;;;;;14.48;12.27;;;19.80;99.90;;;;;;4980801;28;20377;-66
2022/06/25 06:40:44;;;;;;;12.38;11.18;;;19.80;99.90;;;;;;4997491;28;20054;-68
2022/06/25 06:43:09;;;;;;;19.55;12.68;;;19.90;99.90;;;;;;4979629;28;20042;-68
2022/06/25 06:45:35;;;;;;;12.82;10.57;;;19.90;99.90;;;;;;4997645;28;20053;-67
2022/06/25 06:48:01;;;;;;;13.10;10.15;;;19.80;99.90;;;;;;4997843;28;20118;-68
2022/06/25 06:50:26;;;;;;;13.88;9.75;;;19.90;99.90;;;;;;4997459;28;20065;-67
2022/06/25 06:52:52;;;;;;;10.10;8.93;;;19.90;99.90;;;;;;4997376;28;20050;-68
2022/06/25 06:55:17;;;;;;;13.10;8.48;;;19.80;99.90;;;;;;4997558;28;20090;-68
2022/06/25 06:57:43;;;;;;;13.68;8.35;;;20.00;99.90;;;;;;5006438;28;20041;-69
2022/06/25 07:00:09;;;;;;;9.82;7.25;;;19.90;99.90;;;;;;4997564;28;20452;-69
2022/06/25 07:02:34;;;;;;;11.48;8.00;;;20.00;99.90;;;;;;4991801;28;20058;-67
2022/06/25 07:05:00;;;;;;;9.30;7.15;;;20.10;99.90;;;;;;4993041;28;20476;-67
2022/06/25 07:07:26;;;;;;;11.50;7.50;;;20.10;99.90;;;;;;4993644;28;20084;-69
2022/06/25 07:09:51;;;;;;;12.68;7.47;;;20.10;99.90;;;;;;4993788;28;20046;-66
2022/06/25 07:12:17;;;;;;;10.77;7.60;;;20.00;99.90;;;;;;4993799;28;20042;-68
2022/06/25 07:14:42;;;;;;;10.63;7.05;;;20.10;99.90;;;;;;4994105;28;20052;-66
2022/06/25 07:17:08;;;;;;;13.70;7.55;;;20.10;99.90;;;;;;4993983;28;20408;-65
2022/06/25 07:19:34;;;;;;;10.88;7.53;;;20.20;99.90;;;;;;4994178;28;20042;-67
2022/06/25 07:21:59;;;;;;;8.02;7.22;;;20.20;99.90;;;;;;4993575;28;20093;-66
2022/06/25 07:24:25;;;;;;;12.90;8.10;;;20.30;99.90;;;;;;4992326;28;20046;-68
2022/06/25 07:26:51;;;;;;;11.45;8.13;;;20.30;99.90;;;;;;4995544;28;20042;-67
2022/06/25 07:29:17;;;;;;;13.88;7.88;;;20.30;99.90;;;;;;4996891;28;20133;-68
2022/06/25 07:31:43;;;;;;;11.52;8.35;;;20.40;99.90;;;;;;4996670;28;20057;-67
2022/06/25 07:34:09;;;;;;;12.90;7.95;;;20.50;99.90;;;;;;4997019;28;20046;-67
2022/06/25 07:36:34;;;;;;;13.13;7.45;;;20.60;99.90;;;;;;4996730;28;20467;-66
2022/06/25 07:39:00;;;;;;;10.27;7.78;;;20.50;99.90;;;;;;4995885;28;20481;-66
2022/06/25 07:41:27;;;;;;;14.75;7.75;;;20.40;99.90;;;;;;5006225;28;20115;-67
2022/06/25 07:43:52;;;;;;;10.80;7.38;;;20.30;99.90;;;;;;4996226;28;20054;-66
2022/06/25 07:46:18;;;;;;;8.43;7.15;;;20.50;99.90;;;;;;5007842;28;20275;-67
2022/06/25 07:48:44;;;;;;;11.30;7.10;;;20.60;99.90;;;;;;5016267;28;20121;-66
2022/06/25 07:53:54;;;;;;;10.45;6.78;;;20.50;99.90;;;;;;4995749;28;20066;-68
2022/06/25 07:56:19;;;;;;;10.93;6.50;;;20.60;99.90;;;;;;4996328;28;20047;-67
2022/06/25 07:58:45;;;;;;;7.88;6.25;;;20.80;99.90;;;;;;4996280;28;20046;-67
2022/06/25 08:01:11;;;;;;;13.35;6.55;;;20.90;99.90;;;;;;5010781;28;20133;-68
2022/06/25 08:03:36;;;;;;;7.40;5.20;;;21.00;99.90;;;;;;4991969;28;20391;-68
2022/06/25 08:06:02;;;;;;;11.02;5.88;;;21.10;99.90;;;;;;4993129;28;20038;-67
2022/06/25 08:08:28;;;;;;;11.27;5.13;;;21.10;99.90;;;;;;4992850;28;20049;-67
2022/06/25 08:10:54;;;;;;;8.05;5.50;;;21.30;99.90;;;;;;4992855;28;20046;-66
2022/06/25 08:13:20;;;;;;;10.48;5.78;;;21.40;99.90;;;;;;4992987;28;20079;-67
2022/06/25 08:15:46;;;;;;;9.05;5.68;;;21.40;99.90;;;;;;4992212;28;20057;-67
2022/06/25 08:18:11;;;;;;;8.50;5.80;;;21.40;99.90;;;;;;4994124;28;20046;-66
2022/06/25 08:20:37;;;;;;;9.23;5.35;;;21.50;99.90;;;;;;4996215;28;20042;-67
2022/06/25 08:23:03;;;;;;;8.50;5.13;;;21.40;99.90;;;;;;4995428;28;20116;-66
2022/06/25 08:25:28;;;;;;;10.65;5.90;;;21.20;99.90;;;;;;4996160;28;20133;-67
2022/06/25 08:27:54;;;;;;;6.80;5.80;;;21.20;99.90;;;;;;4996142;28;20073;-67
2022/06/25 08:30:21;;;;;;;8.85;5.50;;;21.10;99.90;;;;;;4996352;28;20108;-67
2022/06/25 08:32:48;;;;;;;9.95;5.63;;;21.10;99.90;;;;;;5001683;28;20050;-67
2022/06/25 08:35:14;;;;;;;10.43;4.97;;;21.30;99.90;;;;;;4996032;28;20053;-67
2022/06/25 08:37:44;;;;;;;13.43;5.50;;;21.40;99.90;;;;;;4995653;28;20057;-67
2022/06/25 08:40:10;;;;;;;8.35;5.72;;;21.50;99.90;;;;;;4995343;28;20074;-67
2022/06/25 08:42:37;;;;;;;14.07;6.97;;;21.60;99.90;;;;;;4995496;28;20169;-68
2022/06/25 08:45:03;;;;;;;10.75;5.93;;;21.50;99.90;;;;;;4995662;28;20035;-67
2022/06/25 08:47:29;;;;;;;8.38;6.28;;;21.40;99.90;;;;;;4998682;28;20050;-68
2022/06/25 08:49:55;;;;;;;10.00;5.90;;;21.20;99.90;;;;;;4995630;28;20038;-67
2022/06/25 08:52:21;;;;;;;8.57;5.35;;;21.30;99.90;;;;;;4995661;28;20116;-68
2022/06/25 08:54:48;;;;;;;10.77;5.40;;;21.50;99.90;;;;;;4977668;28;20483;-69
2022/06/25 08:57:14;;;;;;;10.52;5.63;;;21.70;99.90;;;;;;4995380;28;20100;-68
2022/06/25 08:59:41;;;;;;;9.35;5.30;;;21.80;99.90;;;;;;4997593;28;20053;-68
2022/06/25 09:02:07;;;;;;;10.68;6.00;;;21.60;99.90;;;;;;5012472;28;20454;-69
2022/06/25 09:04:33;;;;;;;9.40;4.95;;;21.70;99.90;;;;;;4991660;28;20121;-69
2022/06/25 09:07:11;;;;;;;7.32;5.15;;;21.60;99.90;;;;;;4987751;28;20093;-69
2022/06/25 09:09:37;;;;;;;8.82;5.53;;;21.70;99.90;;;;;;4983224;28;20061;-68
2022/06/25 09:12:08;;;;;;;6.25;5.38;;;21.50;99.90;;;;;;4982759;28;20445;-68
2022/06/25 09:14:36;;;;;;;8.57;5.68;;;21.70;99.90;;;;;;4994869;28;20038;-68
2022/06/25 09:17:05;;;;;;;8.07;5.65;;;21.90;99.90;;;;;;5014992;28;20038;-67
2022/06/25 09:19:45;;;;;;;7.45;4.82;;;22.00;99.90;;;;;;5014698;28;20050;-67
2022/06/25 09:22:13;;;;;;;14.95;6.35;;;22.10;99.90;;;;;;5014648;28;20486;-67
2022/06/25 09:24:57;;;;;;;7.70;5.30;;;22.10;99.90;;;;;;4998740;28;20038;-68
2022/06/25 09:27:33;;;;;;;6.65;5.30;;;22.10;99.90;;;;;;4995373;28;20481;-68
2022/06/25 09:30:10;;;;;;;7.22;5.97;;;22.30;99.90;;;;;;5000414;28;20065;-68
2022/06/25 09:32:41;;;;;;;9.63;5.93;;;22.10;99.90;;;;;;5014634;28;20133;-69
2022/06/25 09:35:09;;;;;;;8.27;6.20;;;22.00;99.90;;;;;;4994944;28;20417;-68
2022/06/25 09:37:35;;;;;;;7.20;6.15;;;21.70;99.90;;;;;;4994716;28;20465;-68
2022/06/25 09:40:02;;;;;;;9.88;6.22;;;21.60;99.90;;;;;;4994134;28;20046;-70
2022/06/25 09:42:32;;;;;;;8.85;6.25;;;21.80;99.90;;;;;;4995456;28;20129;-69
2022/06/25 09:45:06;;;;;;;6.10;5.40;;;22.20;99.90;;;;;;4992322;28;20222;-69
2022/06/25 09:47:37;;;;;;;5.97;3.97;;;22.20;99.90;;;;;;4975633;28;20042;-72
2022/06/25 09:50:14;;;;;;;7.63;3.97;;;22.30;99.90;;;;;;4975496;28;20129;-71
2022/06/25 09:52:50;;;;;;;11.38;4.82;;;22.50;99.90;;;;;;4978499;28;20047;-71
2022/06/25 09:55:17;;;;;;;8.25;4.72;;;22.60;99.90;;;;;;4998623;28;20050;-71
2022/06/25 09:57:44;;;;;;;7.43;5.13;;;22.80;99.90;;;;;;4998744;28;20353;-68
2022/06/25 10:00:10;;;;;;;6.90;5.30;;;22.70;99.90;;;;;;5010868;28;20050;-69
2022/06/25 10:02:37;;;;;;;9.82;5.57;;;22.50;99.90;;;;;;5012823;28;20050;-70
2022/06/25 10:05:03;;;;;;;6.25;4.90;;;22.90;99.90;;;;;;4997924;28;20038;-72
2022/06/25 10:10:20;;;;;;;8.82;4.25;;;23.00;99.90;;;;;;4998156;28;20054;-72
2022/06/25 10:12:47;;;;;;;7.63;4.15;;;23.00;99.90;;;;;;4997522;28;20437;-71
2022/06/25 10:15:19;;;;;;;6.63;3.78;;;22.90;99.90;;;;;;4997374;28;20109;-72
2022/06/25 10:17:47;;;;;;;3.75;3.30;;;23.10;99.90;;;;;;4998153;28;20504;-73
2022/06/25 10:20:13;;;;;;;5.38;3.20;;;22.90;99.90;;;;;;4992130;28;20042;-80
2022/06/25 10:22:40;;;;;;;5.07;3.22;;;22.90;99.90;;;;;;4962687;28;20051;-78
2022/06/25 10:25:19;;;;;;;12.20;4.32;;;22.60;99.90;;;;;;4997716;28;20369;-79
2022/06/25 10:27:46;;;;;;;9.73;3.30;;;21.80;99.90;;;;;;4980582;28;20130;-76
2022/06/25 10:30:13;;;;;;;7.53;3.33;;;21.30;99.90;;;;;;4997075;28;20050;-76
2022/06/25 10:32:52;;;;;;;10.30;3.80;;;20.70;99.90;;;;;;4982236;28;20129;-73
2022/06/25 10:35:30;;;;;;;7.35;3.13;;;20.30;99.90;;;;;;5000679;28;20038;-73
2022/06/25 10:38:16;;;;;;;10.50;3.35;;;20.10;99.90;;;;;;4997957;28;20387;-73
2022/06/25 10:40:45;;;;;;;10.05;3.22;;;19.80;99.90;;;;;;4998001;28;20443;-72
2022/06/25 10:43:45;;;;;;;8.75;3.10;;;19.50;99.90;;;;;;4992075;28;20074;-74
2022/06/25 10:46:25;;;;;;;7.20;3.20;;;19.40;99.90;;;;;;4977428;28;20112;-74
2022/06/25 10:49:17;;;;;;;6.07;3.67;;;19.40;99.90;;;;;;4993684;28;20078;-74
2022/06/25 10:51:50;;;;;;;8.23;4.03;;;19.40;99.90;;;;;;4993829;28;20042;-75
2022/06/25 10:54:24;;;;;;;7.22;3.85;;;19.50;99.90;;;;;;4994110;28;20484;-72
2022/06/25 10:56:53;;;;;;;8.35;4.32;;;19.50;99.90;;;;;;4996998;28;20046;-74
2022/06/25 10:59:34;;;;;;;6.70;4.00;;;19.50;99.90;;;;;;4994279;28;20046;-75
2022/06/25 11:02:05;;;;;;;5.68;3.80;;;19.70;99.90;;;;;;4996970;28;20050;-74
2022/06/25 11:04:32;;;;;;;10.05;3.85;;;19.90;99.90;;;;;;4995520;28;20089;-74
2022/06/25 11:07:21;;;;;;;9.13;4.10;;;19.80;99.90;;;;;;4997520;28;20038;-75
2022/06/25 11:09:59;;;;;;;11.48;4.15;;;19.70;99.90;;;;;;4997344;28;20054;-74
2022/06/25 11:12:27;;;;;;;8.10;3.58;;;19.70;99.90;;;;;;4997253;28;20093;-74
2022/06/25 11:15:08;;;;;;;9.38;3.50;;;19.90;99.90;;;;;;4997315;28;20133;-74
2022/06/25 11:17:34;;;;;;;11.30;3.97;;;20.50;99.90;;;;;;4996873;28;20046;-74
2022/06/25 11:20:11;;;;;;;16.73;4.38;;;20.90;99.90;;;;;;5000302;28;20056;-75
2022/06/25 11:22:47;;;;;;;12.23;3.38;;;21.10;99.90;;;;;;4995745;28;20101;-74
2022/06/25 11:30:42;;;;;;;8.68;5.07;;;21.30;99.90;;;;;;4997109;28;19922;-76
2022/06/25 11:33:09;;;;;;;9.65;4.60;;;21.50;99.90;;;;;;4979020;28;20463;-74
2022/06/25 11:35:44;;;;;;;8.90;5.55;;;21.80;99.90;;;;;;5015822;28;20456;-73
2022/06/25 11:38:17;;;;;;;;;;;22.00;99.90;;;;;;5016979;28;20456;-74
2022/06/25 11:40:42;;;;;;;9.18;6.10;;;21.40;99.90;;;;;;5015988;28;20014;-75
2022/06/25 11:43:09;;;;;;;8.77;6.20;;;21.00;99.90;;;;;;4999054;28;20104;-76
2022/06/25 11:45:49;;;;;;;11.95;7.30;;;20.90;99.90;;;;;;5016044;28;20507;-75
2022/06/25 11:48:15;;;;;;;10.85;7.90;;;20.60;99.90;;;;;;5007088;28;20077;-74
2022/06/25 11:50:41;;;;;;;13.15;7.72;;;20.60;99.90;;;;;;4996810;28;20105;-72
2022/06/25 11:53:06;;;;;;;10.98;6.72;;;20.50;99.90;;;;;;4995976;28;20049;-73
2022/06/25 11:55:32;;;;;;;16.17;8.15;;;20.40;99.90;;;;;;4996591;28;20073;-73
2022/06/25 11:57:58;;;;;;;11.50;9.10;;;20.40;99.90;;;;;;4994643;28;20046;-71
2022/06/25 12:00:24;;;;;;;13.85;7.75;;;20.30;99.90;;;;;;4995034;28;21934;-69
2022/06/25 12:03:04;;;;;;;12.65;7.82;;;20.20;99.90;;;;;;4996395;28;20049;-72
2022/06/25 12:05:29;;;;;;;10.68;7.95;;;20.30;99.90;;;;;;4996229;28;20377;-73
2022/06/25 12:07:56;;;;;;;11.27;9.50;;;20.40;99.90;;;;;;4995660;28;20042;-71
2022/06/25 12:10:22;;;;;;;10.70;7.75;;;20.40;99.90;;;;;;4994252;28;20080;-75
2022/06/25 12:12:48;;;;;;;15.90;8.48;;;20.50;99.90;;;;;;4982414;28;20150;-78
2022/06/25 12:15:15;;;;;;;14.60;9.55;;;20.70;99.90;;;;;;4994505;28;20054;-72
2022/06/25 12:17:43;;;;;;;12.48;9.88;;;20.80;99.90;;;;;;4995626;28;20038;-77
2022/06/25 12:20:10;;;;;;;14.00;10.63;;;20.80;99.90;;;;;;4995164;28;20057;-73
2022/06/25 12:22:51;;;;;;;10.95;8.95;;;20.90;99.90;;;;;;4945674;28;20440;-74
2022/06/25 12:25:31;;;;;;;10.88;9.77;;;21.10;99.90;;;;;;4996019;28;20129;-72
2022/06/25 12:27:57;;;;;;;13.85;9.90;;;21.20;99.90;;;;;;4995483;28;20060;-71
2022/06/25 12:30:24;;;;;;;13.63;11.25;;;21.20;99.90;;;;;;5001317;28;20048;-73
2022/06/25 12:32:52;;;;;;;12.90;9.73;;;21.30;99.90;;;;;;5006544;28;20064;-71
2022/06/25 12:35:23;;;;;;;14.10;9.60;;;21.50;99.90;;;;;;4995692;28;20050;-69
2022/06/25 12:38:06;;;;;;;11.82;8.27;;;21.70;99.90;;;;;;4995396;28;20046;-71
2022/06/25 12:40:43;;;;;;;9.02;8.10;;;22.10;99.90;;;;;;4995729;28;20047;-73
2022/06/25 12:43:12;;;;;;;11.82;8.35;;;22.40;99.90;;;;;;4995304;28;20073;-69
2022/06/25 12:45:40;;;;;;;11.98;7.93;;;22.70;99.90;;;;;;4994747;28;20042;-75
2022/06/25 12:48:09;;;;;;;10.13;7.20;;;22.60;99.90;;;;;;4994675;28;20089;-70
2022/06/25 12:50:39;;;;;;;10.45;6.70;;;22.50;99.90;;;;;;5002638;28;20068;-72
2022/06/25 12:53:13;;;;;;;10.02;6.13;;;22.50;99.90;;;;;;5001496;28;20039;-71
2022/06/25 12:55:43;;;;;;;10.25;6.95;;;22.40;99.90;;;;;;4995577;28;20062;-75
2022/06/25 12:58:12;;;;;;;11.23;7.10;;;22.10;99.90;;;;;;4995417;28;20054;-75
2022/06/25 13:00:39;;;;;;;12.15;7.00;;;22.00;99.90;;;;;;4995558;28;20042;-74